Time;durP1;ratioP1;P1;durP2;ratioP2;P2;SDS_P1;SDS_P2;PMS_P1;PMS_P2;Temp;Humidity;BMP_temperature;BMP_pressure;BME280_temperature;BME280_humidity;BME280_pressure;Samples;Min_cycle;Max_cycle;Signal;HPM_P1;HPM_P2
2022/08/29 00:02:23;;;;;;;8.33;5.73;;;;;;;18.14;83.25;97840.53;5107134;28;20225;-44
2022/08/29 00:05:29;;;;;;;8.83;6.30;;;;;;;18.12;83.53;97843.38;6187288;28;20291;-43
2022/08/29 00:08:31;;;;;;;8.87;5.77;;;;;;;18.12;83.74;97845.22;6206421;28;20739;-44
2022/08/29 00:11:33;;;;;;;9.03;5.83;;;;;;;18.11;83.07;97844.38;6206470;28;20739;-44
2022/08/29 00:14:35;;;;;;;7.77;6.00;;;;;;;18.10;82.82;97834.69;6205729;28;20239;-44
2022/08/29 00:17:37;;;;;;;7.93;6.67;;;;;;;18.10;82.02;97840.03;6204898;28;20236;-44
2022/08/29 00:20:40;;;;;;;8.87;6.30;;;;;;;18.13;82.46;97838.88;6191264;28;20249;-44
2022/08/29 00:23:45;;;;;;;6.73;6.03;;;;;;;18.11;82.63;97839.03;6195477;28;20817;-43
2022/08/29 00:26:47;;;;;;;8.30;5.90;;;;;;;18.12;82.55;97839.88;6205350;28;20287;-44
2022/08/29 00:29:49;;;;;;;6.70;5.80;;;;;;;18.12;82.91;97839.88;6204324;28;20243;-44
2022/08/29 00:32:52;;;;;;;7.80;6.07;;;;;;;18.11;82.88;97841.72;6204404;28;20306;-45
2022/08/29 00:35:54;;;;;;;6.40;5.20;;;;;;;18.13;82.52;97842.38;6205592;28;20247;-44
2022/08/29 00:38:57;;;;;;;6.67;5.50;;;;;;;18.11;82.63;97836.38;6205828;28;20240;-44
2022/08/29 00:41:59;;;;;;;6.43;5.80;;;;;;;18.10;82.92;97841.88;6172646;28;20713;-44
2022/08/29 00:45:08;;;;;;;6.87;6.07;;;;;;;18.10;82.50;97842.72;6192033;28;20603;-43
2022/08/29 00:48:13;;;;;;;7.23;5.83;;;;;;;18.10;82.38;97839.19;6204836;28;20252;-43
2022/08/29 00:51:18;;;;;;;7.20;5.80;;;;;;;18.10;82.08;97844.53;6201078;28;20703;-44
2022/08/29 00:54:22;;;;;;;7.80;5.87;;;;;;;18.05;82.33;97831.69;6204075;28;20224;-44
2022/08/29 00:57:27;;;;;;;8.10;5.70;;;;;;;18.04;82.44;97838.03;6205240;28;20232;-44
2022/08/29 01:00:30;;;;;;;6.83;6.13;;;;;;;18.03;82.15;97831.03;6204032;28;20735;-44
2022/08/29 01:03:35;;;;;;;9.77;5.93;;;;;;;18.06;82.04;97836.03;5852773;28;20237;-43
2022/08/29 01:06:44;;;;;;;9.23;6.30;;;;;;;18.05;82.30;97837.03;6209306;28;20229;-45
2022/08/29 01:09:46;;;;;;;10.37;6.00;;;;;;;18.04;81.99;97830.88;6205445;28;20315;-43
2022/08/29 01:12:48;;;;;;;10.23;6.23;;;;;;;18.05;81.86;97843.22;6204532;28;20928;-44
2022/08/29 01:15:51;;;;;;;8.37;5.40;;;;;;;18.06;81.72;97839.56;6187761;28;20232;-43
2022/08/29 01:18:59;;;;;;;10.67;6.33;;;;;;;18.01;81.34;97833.84;6193159;28;20615;-43
2022/08/29 01:22:07;;;;;;;7.53;5.50;;;;;;;18.03;81.44;97837.22;6179633;28;20339;-43
2022/08/29 01:25:15;;;;;;;9.80;6.00;;;;;;;18.03;81.10;97845.22;6204674;28;20239;-44
2022/08/29 01:28:28;;;;;;;7.63;5.57;;;;;;;18.04;80.79;97844.22;6203535;28;20727;-45
2022/08/29 01:31:40;;;;;;;7.20;5.53;;;;;;;18.04;81.30;97830.88;6203994;28;20225;-43
2022/08/29 01:34:58;;;;;;;7.67;5.80;;;;;;;18.00;81.05;97831.34;6207838;28;20591;-43
2022/08/29 01:38:01;;;;;;;8.83;6.37;;;;;;;18.01;80.75;97838.38;6208769;28;20232;-44
2022/08/29 01:41:03;;;;;;;7.03;5.53;;;;;;;18.03;80.71;97839.03;6210352;28;20267;-43
2022/08/29 01:44:15;;;;;;;9.03;5.83;;;;;;;18.03;80.86;97839.03;6214320;28;20758;-43
2022/08/29 01:47:18;;;;;;;10.50;6.40;;;;;;;18.01;80.83;97841.03;6207592;28;20339;-44
2022/08/29 01:50:20;;;;;;;9.17;5.40;;;;;;;18.00;80.50;97836.69;6198147;28;20794;-44
2022/08/29 01:53:23;;;;;;;8.10;5.70;;;;;;;18.01;80.42;97839.19;6197248;28;20228;-44
2022/08/29 01:56:31;;;;;;;11.57;6.10;;;;;;;18.01;80.72;97841.03;6209749;28;20723;-44
2022/08/29 01:59:33;;;;;;;6.87;5.93;;;;;;;17.97;80.49;97839.69;6208119;28;20240;-45
2022/08/29 02:02:37;;;;;;;8.60;6.03;;;;;;;17.97;80.72;97847.69;6205919;28;20712;-44
2022/08/29 02:05:41;;;;;;;8.17;5.50;;;;;;;17.94;81.06;97843.53;6184926;28;20283;-43
2022/08/29 02:08:43;;;;;;;9.73;5.40;;;;;;;17.94;80.79;97856.06;6208255;28;20323;-44
2022/08/29 02:11:47;;;;;;;7.63;5.80;;;;;;;17.89;80.49;97858.38;6208434;28;20277;-44
2022/08/29 02:14:49;;;;;;;8.33;5.67;;;;;;;17.87;80.50;97860.38;6203554;28;20658;-45
2022/08/29 02:17:51;;;;;;;7.43;5.70;;;;;;;17.88;80.80;97859.38;6208254;28;20244;-44
2022/08/29 02:20:54;;;;;;;6.97;5.10;;;;;;;17.84;80.98;97866.88;6206690;28;20319;-44
2022/08/29 02:23:59;;;;;;;6.37;4.93;;;;;;;17.85;81.45;97867.72;6207619;28;20232;-44
2022/08/29 02:27:21;;;;;;;8.47;5.50;;;;;;;17.80;81.80;97868.22;6208532;28;20347;-44
2022/08/29 02:30:24;;;;;;;6.60;4.87;;;;;;;17.79;81.77;97866.53;6207281;28;20476;-44
2022/08/29 02:33:27;;;;;;;9.37;5.77;;;;;;;17.78;81.91;97875.53;6208111;28;20229;-44
2022/08/29 02:36:29;;;;;;;8.43;5.40;;;;;;;17.75;82.43;97873.22;6208271;28;20692;-45
2022/08/29 02:39:32;;;;;;;8.93;6.23;;;;;;;17.70;82.38;97871.03;6208201;28;20634;-44
2022/08/29 02:42:35;;;;;;;10.50;6.40;;;;;;;17.68;82.62;97867.66;6207507;28;20232;-44
2022/08/29 02:45:38;;;;;;;9.30;6.00;;;;;;;17.65;81.95;97869.84;6207246;28;20608;-44
2022/08/29 02:48:42;;;;;;;7.87;6.77;;;;;;;17.60;81.63;97864.13;6211240;28;20703;-43
2022/08/29 02:52:03;;;;;;;6.83;5.70;;;;;;;17.59;81.62;97860.63;6195411;28;20641;-44
2022/08/29 02:55:07;;;;;;;9.47;6.37;;;;;;;17.59;82.17;97863.28;6207661;28;20306;-44
2022/08/29 02:58:09;;;;;;;7.67;5.47;;;;;;;17.57;82.63;97859.94;6206193;28;20342;-44
2022/08/29 03:01:12;;;;;;;9.53;6.20;;;;;;;17.58;81.70;97860.78;6207302;28;20588;-46
2022/08/29 03:04:15;;;;;;;7.57;5.73;;;;;;;17.59;82.10;97865.13;6207020;28;20233;-44
2022/08/29 03:07:17;;;;;;;7.90;5.17;;;;;;;17.55;82.01;97867.28;6207752;28;20720;-44
2022/08/29 03:10:19;;;;;;;10.00;5.90;;;;;;;17.55;81.97;97866.47;6206620;28;21079;-44
2022/08/29 03:13:22;;;;;;;8.47;5.10;;;;;;;17.51;82.59;97863.25;6207327;28;20307;-44
2022/08/29 03:16:25;;;;;;;8.07;5.70;;;;;;;17.49;82.38;97870.59;6208104;28;20712;-44
2022/08/29 03:19:27;;;;;;;9.20;5.60;;;;;;;17.46;81.48;97870.09;6203591;28;20233;-44
2022/08/29 03:22:31;;;;;;;8.73;5.07;;;;;;;17.48;82.37;97871.59;6190742;28;20287;-44
2022/08/29 03:25:33;;;;;;;12.83;6.23;;;;;;;17.49;81.91;97881.25;6206940;28;20240;-44
2022/08/29 03:28:37;;;;;;;6.90;5.70;;;;;;;17.50;82.20;97874.09;6206472;28;20700;-44
2022/08/29 03:31:39;;;;;;;10.57;5.00;;;;;;;17.50;81.93;97880.28;6207256;28;20704;-44
2022/08/29 03:34:41;;;;;;;9.03;6.27;;;;;;;17.50;82.18;97876.75;6207070;28;20551;-45
2022/08/29 03:37:43;;;;;;;7.47;5.40;;;;;;;17.51;80.98;97881.94;6205929;28;20719;-44
2022/08/29 03:40:45;;;;;;;9.77;5.40;;;;;;;17.49;81.49;97883.09;6206148;28;20708;-45
2022/08/29 03:43:47;;;;;;;9.67;5.10;;;;;;;17.48;81.62;97886.75;6205825;28;20251;-45
2022/08/29 03:46:50;;;;;;;10.07;5.30;;;;;;;17.48;81.19;97887.59;6206127;28;20770;-44
2022/08/29 03:49:52;;;;;;;9.53;5.37;;;;;;;17.49;81.08;97885.75;6164848;28;20810;-44
2022/08/29 03:52:54;;;;;;;10.00;4.47;;;;;;;17.46;80.95;97886.09;6184412;28;20226;-44
2022/08/29 03:55:56;;;;;;;8.53;5.10;;;;;;;17.49;80.79;97885.75;6206019;28;20731;-44
2022/08/29 03:58:58;;;;;;;9.80;4.97;;;;;;;17.48;80.85;97889.41;6205745;28;20651;-45
2022/08/29 04:02:17;;;;;;;6.43;4.70;;;;;;;17.46;80.40;97900.28;6206509;28;20810;-44
2022/08/29 04:05:19;;;;;;;7.30;4.70;;;;;;;17.50;80.78;97900.78;6181204;28;20295;-44
2022/08/29 04:08:21;;;;;;;5.40;4.43;;;;;;;17.52;80.57;97910.31;6204652;28;20722;-44
2022/08/29 04:11:24;;;;;;;5.00;4.50;;;;;;;17.56;80.51;97903.66;6210465;28;20306;-44
2022/08/29 04:14:26;;;;;;;6.90;4.50;;;;;;;17.54;81.15;97902.97;6207180;28;20727;-45
2022/08/29 04:17:28;;;;;;;6.10;4.67;;;;;;;17.53;80.83;97905.81;6206574;28;20232;-44
2022/08/29 04:20:33;;;;;;;7.83;5.33;;;;;;;17.48;79.43;97905.44;6197787;28;20642;-44
2022/08/29 04:23:37;;;;;;;8.60;4.70;;;;;;;17.49;79.56;97905.28;6205905;28;20220;-44
2022/08/29 04:26:39;;;;;;;6.93;4.87;;;;;;;17.48;79.59;97902.78;6206479;28;20255;-45
2022/08/29 04:29:42;;;;;;;8.33;4.23;;;;;;;17.43;80.19;97907.75;6204769;28;20236;-44
2022/08/29 04:32:44;;;;;;;9.70;4.90;;;;;;;17.40;80.93;97908.91;6205840;28;20319;-44
2022/08/29 04:35:47;;;;;;;5.87;4.70;;;;;;;17.39;81.08;97907.25;6205710;28;20747;-44
2022/08/29 04:38:49;;;;;;;8.63;5.07;;;;;;;17.40;81.10;97908.06;6204443;28;20596;-44
2022/08/29 04:41:52;;;;;;;7.93;4.97;;;;;;;17.39;81.03;97912.56;6204943;28;20671;-44
2022/08/29 04:44:54;;;;;;;7.63;5.10;;;;;;;17.41;80.59;97915.94;6203507;28;20318;-44
2022/08/29 04:47:56;;;;;;;8.77;4.60;;;;;;;17.44;80.14;97918.28;6205045;28;20278;-45
2022/08/29 04:51:04;;;;;;;5.63;4.73;;;;;;;17.50;80.24;97925.63;6188291;28;20221;-45
2022/08/29 04:54:06;;;;;;;7.87;4.70;;;;;;;17.55;80.15;97934.00;6204353;28;20217;-44
2022/08/29 04:57:08;;;;;;;6.77;4.30;;;;;;;17.58;80.35;97933.66;6203740;28;20225;-45
2022/08/29 05:00:15;;;;;;;9.73;5.07;;;;;;;17.63;79.80;97934.06;6203252;28;20255;-44
2022/08/29 05:03:19;;;;;;;8.17;5.00;;;;;;;17.65;79.63;97931.25;6204762;28;20783;-45
2022/08/29 05:06:22;;;;;;;8.50;5.10;;;;;;;17.71;79.53;97941.25;6203805;28;20708;-44
2022/08/29 05:09:24;;;;;;;5.70;4.37;;;;;;;17.70;79.46;97937.75;6204088;28;20240;-44
2022/08/29 05:12:28;;;;;;;9.97;4.53;;;;;;;17.78;79.61;97936.09;6203147;28;20723;-45
2022/08/29 05:15:30;;;;;;;4.80;3.87;;;;;;;17.85;79.45;97940.66;6203611;28;20718;-44
2022/08/29 05:18:33;;;;;;;5.13;4.40;;;;;;;17.90;79.21;97943.66;6203598;28;20232;-44
2022/08/29 05:21:38;;;;;;;6.53;4.23;;;;;;;17.97;78.98;97939.34;6183100;28;20233;-45
2022/08/29 05:24:40;;;;;;;7.00;4.33;;;;;;;18.01;78.98;97945.19;6201412;28;20270;-44
2022/08/29 05:27:42;;;;;;;8.73;4.57;;;;;;;18.04;78.60;97942.22;6203193;28;20328;-43
2022/08/29 05:30:44;;;;;;;5.67;4.70;;;;;;;18.04;78.36;97936.88;6204354;28;20715;-44
2022/08/29 05:33:46;;;;;;;4.77;3.90;;;;;;;18.08;78.60;97943.53;6203238;28;20719;-43
2022/08/29 05:36:49;;;;;;;5.20;4.30;;;;;;;18.13;78.57;97949.22;6201906;28;20240;-45
2022/08/29 05:39:51;;;;;;;6.63;4.23;;;;;;;18.11;78.45;97943.22;6203231;28;20309;-44
2022/08/29 05:42:54;;;;;;;5.37;4.17;;;;;;;18.11;78.55;97953.06;6202723;28;20240;-44
2022/08/29 05:46:04;;;;;;;4.20;3.80;;;;;;;18.10;78.61;97965.59;6203207;28;20707;-45
2022/08/29 05:49:06;;;;;;;9.03;4.70;;;;;;;18.10;78.77;97962.91;6203015;28;20233;-45
2022/08/29 05:52:10;;;;;;;6.57;4.37;;;;;;;18.18;78.51;97968.25;6196550;28;20689;-44
2022/08/29 05:55:12;;;;;;;6.60;4.37;;;;;;;18.27;77.80;97969.94;6202315;28;20616;-46
2022/08/29 05:58:14;;;;;;;7.33;4.20;;;;;;;18.33;77.16;97965.81;6203101;28;20275;-44
2022/08/29 06:01:29;;;;;;;5.17;4.23;;;;;;;18.37;76.30;97977.81;6203705;28;20243;-44
2022/08/29 06:04:33;;;;;;;11.13;5.40;;;;;;;18.41;75.89;97981.84;6203454;28;20259;-44
2022/08/29 06:07:35;;;;;;;6.70;5.20;;;;;;;18.45;74.64;97985.88;6203120;28;20228;-44
2022/08/29 06:10:40;;;;;;;7.07;4.93;;;;;;;18.56;74.31;97972.19;6203222;28;20239;-44
2022/08/29 06:13:42;;;;;;;7.20;4.90;;;;;;;18.67;73.76;97971.03;6203532;28;20326;-45
2022/08/29 06:16:44;;;;;;;5.83;4.67;;;;;;;18.73;73.50;97975.72;6195945;28;20720;-46
2022/08/29 06:19:49;;;;;;;7.07;4.80;;;;;;;18.70;73.00;97979.56;6197714;28;20237;-45
2022/08/29 06:22:51;;;;;;;6.30;5.37;;;;;;;18.66;73.14;97974.72;6196968;28;20233;-44
2022/08/29 06:25:55;;;;;;;9.00;5.33;;;;;;;18.61;73.35;97977.03;6203138;28;20997;-44
2022/08/29 06:28:58;;;;;;;7.07;4.83;;;;;;;18.54;73.62;97984.88;6206667;28;20708;-44
2022/08/29 06:32:00;;;;;;;6.57;5.03;;;;;;;18.52;73.64;97984.19;6209217;28;20703;-44
2022/08/29 06:35:02;;;;;;;6.63;4.90;;;;;;;18.57;73.67;97989.91;6207311;28;20624;-43
2022/08/29 06:38:06;;;;;;;7.23;4.67;;;;;;;18.65;73.38;97981.91;6207185;28;20224;-43
2022/08/29 06:41:16;;;;;;;9.23;5.27;;;;;;;18.84;73.30;97982.56;6205915;28;20286;-44
2022/08/29 06:44:20;;;;;;;6.80;4.73;;;;;;;18.86;73.76;97981.41;6206895;28;20322;-44
2022/08/29 06:47:22;;;;;;;8.10;5.17;;;;;;;18.84;72.87;97988.75;6206733;28;20278;-44
2022/08/29 06:50:24;;;;;;;6.50;4.60;;;;;;;18.79;72.52;97983.91;6196020;28;20243;-44
2022/08/29 06:53:27;;;;;;;8.27;4.50;;;;;;;18.76;72.19;97981.59;6198046;28;20700;-44
2022/08/29 06:56:34;;;;;;;7.20;5.03;;;;;;;18.76;72.05;97988.75;6206334;28;20240;-45
2022/08/29 06:59:38;;;;;;;9.40;4.73;;;;;;;18.80;72.32;97984.75;6206803;28;20233;-43
2022/08/29 07:02:40;;;;;;;8.23;4.70;;;;;;;18.83;71.98;97991.59;6206154;28;20323;-44
2022/08/29 07:05:53;;;;;;;6.30;4.43;;;;;;;19.09;70.91;97997.59;6205760;28;20224;-44
2022/08/29 07:08:56;;;;;;;10.23;4.83;;;;;;;19.32;69.39;98001.25;6206510;28;20286;-45
2022/08/29 07:11:58;;;;;;;8.23;5.27;;;;;;;19.38;68.62;98003.22;6205950;28;20235;-44
2022/08/29 07:15:03;;;;;;;12.37;4.97;;;;;;;19.31;68.96;98004.09;6211304;28;20564;-44
2022/08/29 07:18:05;;;;;;;8.93;5.27;;;;;;;19.40;68.50;98011.94;6171167;28;20245;-45
2022/08/29 07:21:10;;;;;;;13.53;6.07;;;;;;;19.49;68.57;98021.66;6170017;28;20256;-44
2022/08/29 07:24:12;;;;;;;8.63;4.87;;;;;;;19.97;67.37;98010.94;6170446;28;20233;-46
2022/08/29 07:27:14;;;;;;;7.80;4.40;;;;;;;20.43;65.34;98012.75;6169305;28;20308;-44
2022/08/29 07:30:16;;;;;;;7.20;4.00;;;;;;;20.86;63.95;98016.63;6169822;28;20228;-44
2022/08/29 07:33:18;;;;;;;9.60;4.83;;;;;;;21.28;63.05;98010.75;6168589;28;20700;-45
2022/08/29 07:36:20;;;;;;;6.47;4.23;;;;;;;21.43;61.82;98013.47;6168829;28;20304;-44
2022/08/29 07:39:22;;;;;;;9.23;4.40;;;;;;;21.86;61.21;98013.69;6168550;28;20247;-44
2022/08/29 07:42:26;;;;;;;5.33;3.67;;;;;;;22.35;59.94;98014.75;6168539;28;20684;-44
2022/08/29 07:45:28;;;;;;;8.43;4.43;;;;;;;22.63;59.04;98012.16;6169674;28;20617;-44
2022/08/29 07:48:30;;;;;;;6.97;4.23;;;;;;;22.62;58.29;98007.81;6168605;28;20241;-44
2022/08/29 07:51:33;;;;;;;4.93;3.70;;;;;;;22.55;58.08;98009.59;6169595;28;20771;-46
2022/08/29 07:54:35;;;;;;;5.80;4.50;;;;;;;22.78;56.31;98007.56;6168663;28;20237;-44
2022/08/29 07:57:37;;;;;;;7.93;4.53;;;;;;;22.50;57.10;98011.19;6187066;28;20251;-45
2022/08/29 08:00:41;;;;;;;6.80;4.27;;;;;;;22.54;57.55;98010.63;6203305;28;20239;-46
2022/08/29 08:03:43;;;;;;;6.90;3.70;;;;;;;22.42;57.31;98012.13;6203995;28;20240;-44
2022/08/29 08:06:45;;;;;;;5.60;3.70;;;;;;;22.34;57.21;98014.94;6157058;28;20608;-44
2022/08/29 08:09:47;;;;;;;7.83;3.67;;;;;;;23.14;56.17;98012.06;6198113;28;20263;-46
2022/08/29 08:12:50;;;;;;;7.47;3.73;;;;;;;23.69;55.30;98010.38;6204806;28;20269;-44
2022/08/29 08:15:54;;;;;;;5.80;3.80;;;;;;;23.80;53.54;98009.84;6204996;28;20296;-46
2022/08/29 08:18:56;;;;;;;6.23;3.63;;;;;;;23.82;53.66;98021.25;6204129;28;20615;-44
2022/08/29 08:21:58;;;;;;;6.07;3.97;;;;;;;23.50;53.82;98020.84;6188654;28;20251;-48
2022/08/29 08:25:01;;;;;;;5.27;3.63;;;;;;;23.81;53.66;98027.69;6204636;28;20594;-44
2022/08/29 08:28:03;;;;;;;6.67;4.13;;;;;;;23.94;52.41;98029.63;6204746;28;20319;-44
2022/08/29 08:31:07;;;;;;;6.00;3.53;;;;;;;23.79;53.47;98035.97;6204127;28;20285;-44
2022/08/29 08:34:14;;;;;;;6.60;3.50;;;;;;;24.19;53.10;98020.00;6204969;28;20542;-45
2022/08/29 08:37:16;;;;;;;5.97;3.70;;;;;;;24.58;51.75;98030.94;6203971;28;20600;-44
2022/08/29 08:40:30;;;;;;;8.40;3.80;;;;;;;24.68;50.31;98025.16;6203194;28;20240;-45
2022/08/29 08:43:47;;;;;;;4.27;3.10;;;;;;;24.70;51.16;98033.06;6205340;28;20334;-45
2022/08/29 08:46:54;;;;;;;8.23;3.60;;;;;;;25.03;49.82;98030.47;6205211;28;20266;-44
2022/08/29 08:50:33;;;;;;;3.90;3.00;;;;;;;25.14;48.67;98029.84;6197510;28;20721;-45
2022/08/29 08:53:42;;;;;;;4.60;3.30;;;;;;;25.09;48.44;98032.31;6192028;28;20239;-44
2022/08/29 08:56:49;;;;;;;4.67;3.23;;;;;;;25.13;48.25;98037.13;6203722;28;20232;-44
2022/08/29 08:59:57;;;;;;;5.97;3.37;;;;;;;25.68;48.43;98021.53;6203168;28;20339;-45
2022/08/29 09:03:10;;;;;;;6.32;3.15;;;;;;;26.01;47.72;98029.56;6202919;28;20236;-44
2022/08/29 09:06:57;;;;;;;4.28;3.22;;;;;;;26.29;47.03;98026.56;6203787;28;20228;-45
2022/08/29 09:10:27;;;;;;;5.38;3.17;;;;;;;26.28;44.97;98025.75;6185659;28;20818;-48
2022/08/29 09:14:01;;;;;;;5.90;2.45;;;;;;;26.72;45.14;98016.78;6169407;28;20359;-45
2022/08/29 09:17:09;;;;;;;5.57;2.75;;;;;;;26.60;45.17;98031.22;6175993;28;20221;-46
2022/08/29 09:20:21;;;;;;;4.60;3.00;;;;;;;26.70;44.52;98015.34;6167715;28;20302;-45
2022/08/29 09:23:44;;;;;;;5.88;3.22;;;;;;;26.66;43.36;98017.63;6168158;28;20272;-46
2022/08/29 09:26:48;;;;;;;5.72;2.75;;;;;;;26.39;44.21;98027.78;6173922;28;20300;-45
2022/08/29 09:30:09;;;;;;;6.03;2.95;;;;;;;26.32;41.91;98015.34;6163784;28;20256;-46
2022/08/29 09:33:15;;;;;;;4.80;2.63;;;;;;;26.70;42.88;98023.47;6208433;28;20302;-45
2022/08/29 09:36:49;;;;;;;6.10;2.85;;;;;;;27.03;42.41;98016.00;6165495;28;20296;-45
2022/08/29 09:40:07;;;;;;;4.50;2.83;;;;;;;27.10;41.40;98018.66;6164742;28;20324;-45
2022/08/29 09:43:24;;;;;;;7.97;3.42;;;;;;;27.00;42.31;98019.13;6155759;28;20728;-47
2022/08/29 09:46:26;;;;;;;5.55;3.10;;;;;;;27.34;42.09;98022.44;6200211;28;20331;-46
2022/08/29 09:49:28;;;;;;;4.40;2.88;;;;;;;27.40;40.82;98021.53;6193999;28;20228;-46
2022/08/29 09:52:31;;;;;;;8.10;3.40;;;;;;;27.57;40.89;98022.66;6174809;28;20263;-45
2022/08/29 09:55:43;;;;;;;4.18;2.97;;;;;;;27.96;39.73;98028.72;6175084;28;20241;-46
2022/08/29 09:59:00;;;;;;;8.77;4.50;;;;;;;27.92;38.50;98031.06;6164788;28;20328;-45
2022/08/29 10:02:26;;;;;;;6.00;3.63;;;;;;;27.58;37.52;98018.88;6165467;28;20651;-45
2022/08/29 10:05:35;;;;;;;4.05;2.65;;;;;;;27.45;39.16;98019.00;6182207;28;20225;-46
2022/08/29 10:08:39;;;;;;;5.15;3.40;;;;;;;27.99;37.96;98025.56;6175565;28;20320;-45
2022/08/29 10:12:13;;;;;;;3.28;2.35;;;;;;;28.46;36.12;98004.97;6181875;28;20310;-45
2022/08/29 10:15:24;;;;;;;5.38;3.17;;;;;;;27.94;37.40;98011.88;6177967;28;20302;-45
2022/08/29 10:18:51;;;;;;;5.93;3.50;;;;;;;27.86;38.21;98011.09;6163518;28;20230;-45
2022/08/29 10:22:31;;;;;;;3.20;2.88;;;;;;;28.23;38.05;98008.41;6168448;28;20716;-45
2022/08/29 10:25:40;;;;;;;3.97;2.60;;;;;;;28.51;38.07;98011.38;6180648;28;20546;-46
2022/08/29 10:28:57;;;;;;;3.30;2.40;;;;;;;28.72;36.86;98017.38;6177590;28;20990;-45
2022/08/29 10:32:39;;;;;;;2.92;2.55;;;;;;;28.52;36.56;98014.94;6174672;28;20233;-46
2022/08/29 10:35:53;;;;;;;3.28;2.63;;;;;;;28.33;37.72;98010.59;6173844;28;20313;-45
2022/08/29 10:39:14;;;;;;;4.05;2.70;;;;;;;28.54;36.85;98010.09;6165919;28;20331;-46
2022/08/29 10:42:20;;;;;;;4.95;2.65;;;;;;;28.96;35.77;98002.81;6175202;28;20625;-44
2022/08/29 10:45:50;;;;;;;4.03;2.30;;;;;;;29.03;36.33;98006.28;6173379;28;20776;-45
2022/08/29 10:49:10;;;;;;;5.43;2.88;;;;;;;28.90;35.73;98012.75;6174496;28;20221;-44
2022/08/29 10:52:45;;;;;;;3.03;2.15;;;;;;;29.10;35.24;98011.59;6165221;28;20697;-48
2022/08/29 10:55:58;;;;;;;4.75;2.50;;;;;;;29.76;35.46;98005.06;6174170;28;20308;-45
2022/08/29 10:59:33;;;;;;;5.03;2.45;;;;;;;30.14;34.21;98005.41;6177352;28;20607;-45
2022/08/29 11:16:42;;;;;;;3.80;2.28;;;;;;;30.35;32.97;97982.94;4862067;28;22139;-44
2022/08/29 11:20:10;;;;;;;4.25;2.88;;;;;;;30.55;31.84;97984.44;6173443;28;20690;-47
2022/08/29 11:23:29;;;;;;;2.70;2.08;;;;;;;30.36;32.39;97981.06;6170366;28;20705;-46
2022/08/29 11:27:06;;;;;;;3.10;2.22;;;;;;;30.28;31.96;97982.28;6172949;28;20304;-45
2022/08/29 11:30:18;;;;;;;2.75;2.08;;;;;;;30.43;32.74;97987.22;6163472;28;20284;-44
2022/08/29 11:33:34;;;;;;;4.55;2.00;;;;;;;30.88;31.16;97981.81;6168296;28;20668;-44
2022/08/29 11:36:48;;;;;;;4.13;2.42;;;;;;;30.72;31.83;97972.53;6182938;28;20241;-45
2022/08/29 11:40:28;;;;;;;3.22;2.00;;;;;;;30.72;32.96;97980.72;6178740;28;20245;-48
2022/08/29 11:43:56;;;;;;;3.42;2.20;;;;;;;31.07;32.88;97971.50;6165277;28;20687;-45
2022/08/29 11:46:59;;;;;;;3.38;2.30;;;;;;;30.73;33.02;97967.91;6178823;28;21035;-45
2022/08/29 11:50:20;;;;;;;2.97;2.05;;;;;;;31.11;32.70;97968.06;6189211;28;20228;-44
2022/08/29 11:53:33;;;;;;;3.75;2.35;;;;;;;30.83;32.91;97962.63;6177138;28;20232;-48
2022/08/29 11:56:36;;;;;;;3.95;2.30;;;;;;;29.79;34.03;97969.22;6164129;28;20702;-45
2022/08/29 11:59:47;;;;;;;3.08;2.53;;;;;;;30.48;33.21;97960.03;6185874;28;20712;-44
2022/08/29 12:02:49;;;;;;;4.10;2.20;;;;;;;30.56;31.81;97962.41;6206461;28;20388;-45
2022/08/29 12:05:58;;;;;;;4.60;2.45;;;;;;;30.52;32.31;97968.56;6206125;28;20228;-46
2022/08/29 12:09:22;;;;;;;3.85;2.22;;;;;;;30.97;32.15;97963.13;6205735;28;20315;-45
2022/08/29 12:12:48;;;;;;;5.28;2.40;;;;;;;31.59;31.40;97952.16;6205772;28;20232;-46
2022/08/29 12:16:04;;;;;;;4.20;2.20;;;;;;;31.86;31.68;97958.56;6206176;28;20730;-46
2022/08/29 12:19:09;;;;;;;3.35;2.10;;;;;;;32.04;31.09;97952.81;6204449;28;20264;-44
2022/08/29 12:22:50;;;;;;;4.35;2.40;;;;;;;32.52;30.33;97948.47;6180473;28;20703;-46
2022/08/29 12:26:04;;;;;;;3.58;2.50;;;;;;;31.90;30.96;97948.78;6204918;28;20654;-45
2022/08/29 12:29:33;;;;;;;3.50;2.45;;;;;;;31.33;31.42;97940.03;6204729;28;20638;-45
2022/08/29 12:33:12;;;;;;;2.80;2.45;;;;;;;30.52;32.71;97939.47;6205493;28;20224;-45
2022/08/29 12:36:23;;;;;;;4.88;2.30;;;;;;;30.51;32.98;97934.22;6203883;28;20331;-45
2022/08/29 12:39:49;;;;;;;5.85;2.58;;;;;;;30.83;32.90;97931.84;6205387;28;20247;-45
2022/08/29 12:43:10;;;;;;;3.47;2.60;;;;;;;30.58;32.25;97934.91;6203960;28;20237;-45
2022/08/29 12:46:28;;;;;;;3.40;2.28;;;;;;;30.88;31.93;97930.00;6204668;28;20352;-47
2022/08/29 12:49:41;;;;;;;4.72;2.50;;;;;;;30.85;30.64;97926.94;6201014;28;20237;-46
2022/08/29 12:53:00;;;;;;;4.28;2.30;;;;;;;30.26;32.53;97920.94;6204163;28;20314;-45
2022/08/29 12:56:18;;;;;;;3.65;2.00;;;;;;;31.17;31.91;97919.88;6204166;28;20623;-47
2022/08/29 12:59:20;;;;;;;5.47;2.53;;;;;;;31.73;31.28;97921.56;6203415;28;20232;-48
2022/08/29 13:02:33;;;;;;;3.97;2.58;;;;;;;31.78;32.32;97916.16;6204085;28;20323;-48
2022/08/29 13:05:39;;;;;;;4.32;2.10;;;;;;;32.35;31.69;97904.81;6187912;28;20256;-49
2022/08/29 13:08:41;;;;;;;2.75;2.45;;;;;;;33.12;30.03;97909.94;6204062;28;20233;-47
2022/08/29 13:11:43;;;;;;;4.28;2.20;;;;;;;-144.22;100.00;60274.75;6204347;28;20232;-49
2022/08/29 13:15:00;;;;;;;3.25;2.20;;;;;;;-144.22;100.00;60274.75;6204437;28;20236;-48
2022/08/29 13:40:57;;;;;;;4.75;2.10;;;;;;;38.49;21.43;97899.28;5629272;28;20289;-46
2022/08/29 13:43:59;;;;;;;2.55;2.35;;;;;;;39.33;20.64;97897.38;6187826;28;20233;-47
2022/08/29 13:47:13;;;;;;;2.42;1.92;;;;;;;40.13;20.47;97894.19;6203898;28;20560;-45
2022/08/29 13:50:15;;;;;;;3.85;2.42;;;;;;;40.81;18.97;97884.13;6195944;28;20307;-47
2022/08/29 13:53:18;;;;;;;5.03;2.25;;;;;;;40.91;18.54;97868.09;6197888;28;20234;-47
2022/08/29 13:56:27;;;;;;;2.50;1.70;;;;;;;40.56;19.44;97872.50;6195792;28;20711;-43
2022/08/29 13:59:35;;;;;;;2.40;2.20;;;;;;;40.82;18.27;97869.97;6209839;28;20224;-49
2022/08/29 14:02:38;;;;;;;3.30;1.92;;;;;;;40.35;18.30;97860.25;6211519;28;20234;-44
2022/08/29 14:05:46;;;;;;;2.35;2.10;;;;;;;40.20;18.96;97863.34;6213256;28;20267;-44
2022/08/29 14:08:48;;;;;;;3.85;2.17;;;;;;;40.58;17.72;97855.56;6205630;28;20566;-43
2022/08/29 14:11:51;;;;;;;1.90;1.60;;;;;;;40.13;17.62;97857.44;6213736;28;20342;-43
2022/08/29 14:14:53;;;;;;;2.42;2.03;;;;;;;40.76;18.11;97859.31;6198319;28;20700;-46
2022/08/29 14:17:55;;;;;;;2.50;2.05;;;;;;;41.77;16.89;97859.41;6202546;28;20715;-45
2022/08/29 14:20:57;;;;;;;2.50;1.85;;;;;;;42.02;16.85;97851.53;6208019;28;20236;-44
2022/08/29 14:23:59;;;;;;;2.40;1.95;;;;;;;42.69;16.29;97851.91;6211164;28;20255;-43
2022/08/29 14:27:03;;;;;;;3.17;1.88;;;;;;;42.87;15.52;97856.34;6210332;28;20687;-43
2022/08/29 14:30:09;;;;;;;5.55;3.97;;;;;;;42.78;15.80;97849.16;6211820;28;20204;-45
2022/08/29 14:33:11;;;;;;;2.00;1.80;;;;;;;43.26;15.58;97846.94;6211530;28;20212;-46
2022/08/29 14:36:14;;;;;;;3.15;2.13;;;;;;;43.26;15.69;97848.91;6208681;28;20664;-45
2022/08/29 14:39:17;;;;;;;3.13;2.17;;;;;;;43.68;15.22;97847.16;6210936;28;20216;-45
2022/08/29 14:42:27;;;;;;;2.25;1.75;;;;;;;44.03;15.43;97850.56;6205559;28;20562;-47
2022/08/29 14:45:30;;;;;;;2.70;2.05;;;;;;;44.23;14.92;97844.19;6211263;28;20232;-45
2022/08/29 14:48:32;;;;;;;2.80;2.13;;;;;;;44.40;14.61;97838.53;6206915;28;20232;-49
2022/08/29 14:51:34;;;;;;;2.58;1.95;;;;;;;44.59;15.12;97848.38;6185139;28;20240;-44
2022/08/29 14:54:36;;;;;;;4.60;2.00;;;;;;;44.97;14.40;97835.09;6206560;28;20236;-43
2022/08/29 14:57:39;;;;;;;2.38;1.63;;;;;;;44.47;14.68;97832.41;6207165;28;20232;-48
2022/08/29 15:00:41;;;;;;;4.63;2.28;;;;;;;44.22;14.61;97839.81;6207548;28;20611;-46
2022/08/29 15:03:43;;;;;;;3.00;2.33;;;;;;;43.14;15.34;97829.31;6206572;28;20236;-43
2022/08/29 15:06:45;;;;;;;2.75;1.88;;;;;;;43.18;16.40;97830.31;6206725;28;20236;-47
2022/08/29 15:09:47;;;;;;;2.47;1.58;;;;;;;43.28;16.45;97818.84;6206655;28;20307;-45
2022/08/29 15:12:50;;;;;;;4.22;2.10;;;;;;;42.41;15.95;97817.31;6206637;28;20556;-45
2022/08/29 15:15:53;;;;;;;2.97;1.98;;;;;;;42.91;16.75;97812.06;6206366;28;20797;-46
2022/08/29 15:18:55;;;;;;;2.20;1.83;;;;;;;42.49;16.06;97816.50;6206147;28;20228;-45